createdAt,value
2019-01-19T00:02:03.495Z,4.27
2019-01-19T00:05:10.457Z,4.43
2019-01-19T00:08:08.418Z,4.90
2019-01-19T00:11:31.844Z,5.33
2019-01-19T00:14:22.351Z,4.67
2019-01-19T00:17:36.536Z,4.17
2019-01-19T00:20:56.457Z,5.30
2019-01-19T00:23:59.675Z,4.67
2019-01-19T00:27:06.834Z,5.57
2019-01-19T00:30:20.719Z,5.13
2019-01-19T00:33:26.844Z,5.07
2019-01-19T00:36:30.404Z,4.20
2019-01-19T00:39:57.026Z,4.30
2019-01-19T00:42:45.077Z,4.70
2019-01-19T00:45:51.944Z,5.30
2019-01-19T00:49:12.168Z,5.47
2019-01-19T00:52:41.081Z,5.03
2019-01-19T00:55:34.051Z,5.03
2019-01-19T00:58:52.883Z,4.90
2019-01-19T01:02:04.503Z,4.93
2019-01-19T01:04:50.889Z,5.03
2019-01-19T01:08:04.935Z,5.50
2019-01-19T01:10:49.226Z,4.83
2019-01-19T01:14:06.210Z,4.50
2019-01-19T01:16:49.212Z,5.17
2019-01-19T01:20:01.819Z,5.13
2019-01-19T01:22:56.160Z,5.73
2019-01-19T01:26:14.939Z,5.07
2019-01-19T01:29:41.259Z,4.77
2019-01-19T01:32:28.012Z,5.20
2019-01-19T01:35:42.642Z,4.53
2019-01-19T01:38:52.366Z,5.27
2019-01-19T01:42:21.926Z,5.20
2019-01-19T01:45:21.498Z,5.47
2019-01-19T01:48:28.378Z,5.50
2019-01-19T01:51:39.929Z,4.93
2019-01-19T01:54:47.584Z,5.83
2019-01-19T01:57:42.586Z,6.07
2019-01-19T02:00:51.551Z,5.57
2019-01-19T02:04:06.387Z,5.47
2019-01-19T02:07:09.426Z,5.90
2019-01-19T02:10:03.940Z,5.20
2019-01-19T02:13:33.005Z,5.83
2019-01-19T02:16:36.063Z,5.13
2019-01-19T02:19:38.568Z,5.77
2019-01-19T02:22:38.224Z,5.67
2019-01-19T02:25:37.141Z,5.63
2019-01-19T02:28:38.506Z,5.93
2019-01-19T02:31:32.714Z,6.17
2019-01-19T02:34:15.934Z,6.37
2019-01-19T02:37:19.182Z,6.03
2019-01-19T02:40:13.008Z,6.00
2019-01-19T02:43:22.923Z,5.27
2019-01-19T02:46:42.636Z,5.93
2019-01-19T02:49:59.909Z,5.40
2019-01-19T02:53:23.338Z,5.60
2019-01-19T02:56:31.936Z,5.57
2019-01-19T02:59:24.954Z,6.20
2019-01-19T03:02:41.985Z,6.53
2019-01-19T03:05:39.982Z,6.47
2019-01-19T03:08:35.728Z,6.30
2019-01-19T03:11:44.548Z,6.37
2019-01-19T03:14:47.432Z,6.53
2019-01-19T03:17:39.795Z,6.63
2019-01-19T03:20:35.163Z,5.83
2019-01-19T03:23:51.488Z,5.23
2019-01-19T03:26:53.698Z,6.47
2019-01-19T03:29:54.953Z,4.90
2019-01-19T03:33:15.077Z,4.87
2019-01-19T03:36:05.165Z,5.73
2019-01-19T03:39:01.840Z,4.90
2019-01-19T03:42:19.177Z,5.60
2019-01-19T03:45:17.148Z,6.27
2019-01-19T03:48:27.984Z,5.80
2019-01-19T03:51:20.562Z,5.63
2019-01-19T03:54:24.242Z,5.90
2019-01-19T03:57:29.049Z,4.80
2019-01-19T04:00:11.676Z,5.70
2019-01-19T04:03:28.818Z,6.13
2019-01-19T04:06:29.504Z,5.93
2019-01-19T04:09:32.215Z,7.27
2019-01-19T04:12:51.416Z,5.30
2019-01-19T04:15:53.954Z,5.87
2019-01-19T04:18:47.604Z,5.87
2019-01-19T04:22:16.941Z,5.60
2019-01-19T04:25:15.434Z,5.37
2019-01-19T04:27:45.626Z,5.70
2019-01-19T04:30:15.806Z,5.23
2019-01-19T04:32:45.880Z,6.00
2019-01-19T04:35:15.980Z,6.47
2019-01-19T04:37:46.072Z,5.90
2019-01-19T04:40:18.289Z,6.70
2019-01-19T04:42:48.353Z,5.83
2019-01-19T04:45:18.514Z,7.03
2019-01-19T04:47:48.617Z,5.47
2019-01-19T04:50:18.670Z,6.10
2019-01-19T04:52:49.787Z,6.20
2019-01-19T04:55:19.867Z,5.23
2019-01-19T04:57:49.962Z,6.57
2019-01-19T05:00:20.198Z,5.73
2019-01-19T05:02:50.260Z,6.93
2019-01-19T05:05:20.365Z,6.80
2019-01-19T05:07:50.422Z,7.13
2019-01-19T05:10:20.525Z,6.73
2019-01-19T05:12:51.836Z,7.10
2019-01-19T05:15:22.749Z,7.10
2019-01-19T05:17:53.219Z,7.00
2019-01-19T05:20:23.269Z,6.90
2019-01-19T05:22:53.333Z,6.77
2019-01-19T05:25:23.417Z,6.87
2019-01-19T05:27:53.460Z,6.17
2019-01-19T05:30:23.571Z,7.60
2019-01-19T05:32:53.699Z,6.27
2019-01-19T05:35:23.769Z,6.20
2019-01-19T05:37:53.960Z,7.40
2019-01-19T05:40:23.985Z,5.57
2019-01-19T05:42:54.074Z,6.77
2019-01-19T05:45:24.238Z,6.50
2019-01-19T05:47:54.460Z,6.20
2019-01-19T05:50:24.562Z,6.57
2019-01-19T05:52:54.653Z,6.47
2019-01-19T05:55:24.710Z,7.07
2019-01-19T05:57:54.786Z,6.47
2019-01-19T06:00:33.139Z,6.43
2019-01-19T06:03:03.195Z,6.23
2019-01-19T06:05:33.261Z,6.67
2019-01-19T06:08:03.556Z,7.30
2019-01-19T06:10:33.624Z,7.67
2019-01-19T06:13:03.806Z,7.20
2019-01-19T06:15:33.964Z,7.00
2019-01-19T06:18:04.168Z,6.73
2019-01-19T06:20:34.223Z,6.40
2019-01-19T06:23:04.271Z,7.53
2019-01-19T06:25:34.343Z,7.27
2019-01-19T06:28:04.496Z,7.43
2019-01-19T06:30:34.880Z,8.10
2019-01-19T06:33:05.467Z,8.00
2019-01-19T06:35:35.845Z,8.57
2019-01-19T06:38:05.950Z,8.37
2019-01-19T06:40:36.419Z,8.83
2019-01-19T06:43:06.565Z,8.47
2019-01-19T06:45:36.841Z,6.63
2019-01-19T06:48:07.308Z,8.03
2019-01-19T06:50:37.459Z,7.13
2019-01-19T06:53:07.581Z,7.53
2019-01-19T06:55:38.104Z,8.57
2019-01-19T06:58:08.305Z,7.03
2019-01-19T07:00:38.687Z,7.60
2019-01-19T07:03:11.716Z,7.00
2019-01-19T07:05:41.905Z,7.97
2019-01-19T07:08:12.016Z,7.47
2019-01-19T07:10:42.142Z,6.63
2019-01-19T07:13:12.273Z,7.80
2019-01-19T07:15:42.879Z,8.23
2019-01-19T07:18:12.946Z,8.33
2019-01-19T07:20:43.094Z,8.17
2019-01-19T07:23:13.234Z,8.53
2019-01-19T07:25:43.539Z,19.90
2019-01-19T07:28:13.594Z,19.90
2019-01-19T07:30:44.100Z,13.67
2019-01-19T07:33:14.290Z,11.80
2019-01-19T07:35:44.495Z,11.30
2019-01-19T07:38:16.057Z,16.57
2019-01-19T07:40:46.632Z,39.27
2019-01-19T07:43:19.924Z,60.57
2019-01-19T07:45:51.436Z,102.17
2019-01-19T07:48:21.535Z,95.47
2019-01-19T07:50:58.621Z,58.03
2019-01-19T07:53:28.985Z,66.37
2019-01-19T07:55:59.148Z,62.97
2019-01-19T07:58:29.308Z,64.23
2019-01-19T08:00:59.550Z,59.83
2019-01-19T08:03:31.064Z,35.70
2019-01-19T08:06:01.444Z,46.83
2019-01-19T08:08:31.552Z,26.07
2019-01-19T08:11:01.858Z,17.13
2019-01-19T08:13:32.026Z,22.80
2019-01-19T08:16:02.947Z,26.97
2019-01-19T08:18:34.432Z,27.33
2019-01-19T08:21:05.087Z,55.67
2019-01-19T08:23:35.247Z,48.20
2019-01-19T08:26:05.520Z,62.03
2019-01-19T08:28:35.620Z,39.37
2019-01-19T08:31:06.066Z,32.67
2019-01-19T08:33:36.463Z,39.87
2019-01-19T08:36:06.761Z,23.53
2019-01-19T08:38:37.871Z,15.07
2019-01-19T08:41:08.235Z,15.00
2019-01-19T08:43:57.522Z,18.10
2019-01-19T08:46:27.650Z,12.50
2019-01-19T08:48:57.704Z,9.93
2019-01-19T08:51:27.845Z,8.47
2019-01-19T08:53:57.996Z,8.60
2019-01-19T08:56:28.479Z,7.77
2019-01-19T08:58:58.607Z,10.27
2019-01-19T09:01:28.813Z,9.93
2019-01-19T09:04:01.079Z,9.87
2019-01-19T09:06:31.312Z,9.37
2019-01-19T09:09:01.467Z,8.37
2019-01-19T09:11:31.630Z,8.40
2019-01-19T09:14:01.714Z,7.27
2019-01-19T09:16:31.841Z,7.10
2019-01-19T09:19:01.911Z,9.33
2019-01-19T09:21:33.663Z,7.63
2019-01-19T09:24:11.869Z,8.60
2019-01-19T09:26:42.009Z,7.93
2019-01-19T09:29:12.207Z,8.80
2019-01-19T09:31:42.341Z,7.83
2019-01-19T09:34:12.527Z,8.00
2019-01-19T09:36:43.012Z,7.93
2019-01-19T09:39:13.428Z,8.10
2019-01-19T09:41:43.523Z,7.93
2019-01-19T09:44:13.599Z,7.60
2019-01-19T09:46:44.773Z,7.13
2019-01-19T09:49:15.234Z,7.60
2019-01-19T09:51:45.390Z,7.73
2019-01-19T09:54:15.495Z,7.47
2019-01-19T09:56:45.967Z,7.10
2019-01-19T09:59:16.070Z,7.00
2019-01-19T10:01:46.657Z,6.80
2019-01-19T10:04:17.550Z,6.77
2019-01-19T10:06:48.309Z,7.17
2019-01-19T10:09:18.505Z,6.93
2019-01-19T10:11:48.603Z,6.20
2019-01-19T10:14:19.112Z,6.87
2019-01-19T10:16:49.239Z,7.73
2019-01-19T10:19:20.337Z,8.07
2019-01-19T10:21:50.411Z,6.10
2019-01-19T10:24:20.492Z,6.30
2019-01-19T10:26:50.559Z,5.70
2019-01-19T10:29:29.921Z,5.97
2019-01-19T10:32:01.244Z,6.97
2019-01-19T10:34:31.672Z,6.73
2019-01-19T10:37:01.942Z,6.13
2019-01-19T10:39:32.176Z,5.40
2019-01-19T10:42:03.478Z,5.87
2019-01-19T10:44:33.608Z,6.93
2019-01-19T10:47:10.923Z,6.77
2019-01-19T10:49:42.642Z,7.10
2019-01-19T10:52:17.561Z,6.23
2019-01-19T10:54:48.055Z,6.53
2019-01-19T10:57:18.403Z,6.00
2019-01-19T10:59:48.616Z,5.47
2019-01-19T11:02:18.804Z,5.67
2019-01-19T11:04:49.490Z,6.03
2019-01-19T11:07:19.526Z,6.93
2019-01-19T11:09:49.728Z,5.43
2019-01-19T11:12:20.031Z,4.70
2019-01-19T11:14:50.156Z,4.80
2019-01-19T11:17:20.254Z,5.90
2019-01-19T11:19:50.469Z,6.50
2019-01-19T11:22:20.577Z,6.30
2019-01-19T11:24:50.753Z,5.40
2019-01-19T11:27:20.842Z,6.70
2019-01-19T11:29:51.087Z,4.87
2019-01-19T11:32:21.182Z,5.07
2019-01-19T11:34:52.598Z,4.90
2019-01-19T11:37:22.685Z,5.10
2019-01-19T11:39:52.876Z,5.33
2019-01-19T11:42:24.114Z,5.60
2019-01-19T11:44:55.788Z,5.00
2019-01-19T11:47:25.902Z,4.90
2019-01-19T11:49:55.967Z,5.20
2019-01-19T11:52:27.608Z,5.73
2019-01-19T11:54:58.231Z,5.90
2019-01-19T11:57:28.371Z,5.03
2019-01-19T11:59:58.472Z,6.13
2019-01-19T12:02:28.538Z,5.63
2019-01-19T12:04:58.697Z,5.40
2019-01-19T12:07:29.640Z,5.73
2019-01-19T12:09:59.751Z,6.10
2019-01-19T12:12:29.807Z,5.37
2019-01-19T12:14:59.911Z,4.53
2019-01-19T12:17:29.999Z,5.03
2019-01-19T12:20:01.451Z,4.97
2019-01-19T12:22:37.485Z,4.93
2019-01-19T12:25:10.781Z,4.47
2019-01-19T12:27:41.922Z,5.03
2019-01-19T12:30:21.081Z,5.27
2019-01-19T12:32:51.106Z,5.00
2019-01-19T12:35:21.204Z,4.83
2019-01-19T12:37:51.350Z,4.57
2019-01-19T12:40:24.962Z,4.90
2019-01-19T12:42:58.039Z,5.23
2019-01-19T12:45:35.323Z,4.83
2019-01-19T12:48:05.427Z,4.90
2019-01-19T12:50:35.602Z,4.63
2019-01-19T12:53:05.790Z,5.17
2019-01-19T12:55:38.207Z,5.17
2019-01-19T12:58:09.709Z,4.60
2019-01-19T13:00:40.712Z,4.67
2019-01-19T13:03:15.001Z,4.97
2019-01-19T13:05:52.037Z,5.73
2019-01-19T13:08:23.882Z,5.13
2019-01-19T13:11:17.351Z,5.17
2019-01-19T13:13:49.847Z,4.67
2019-01-19T13:17:11.479Z,5.13
2019-01-19T13:20:25.685Z,4.47
2019-01-19T13:23:51.604Z,5.10
2019-01-19T13:26:44.421Z,4.60
2019-01-19T13:29:34.274Z,5.03
2019-01-19T13:32:54.505Z,5.03
2019-01-19T13:35:59.336Z,5.33
2019-01-19T13:38:54.918Z,5.13
2019-01-19T13:42:10.187Z,5.37
2019-01-19T13:45:17.366Z,5.07
2019-01-19T13:48:36.622Z,4.90
2019-01-19T13:51:44.242Z,5.30
2019-01-19T13:54:43.975Z,5.47
2019-01-19T13:58:00.851Z,8.47
2019-01-19T14:01:15.231Z,8.80
2019-01-19T14:04:19.409Z,6.13
2019-01-19T14:07:51.604Z,5.20
2019-01-19T14:10:43.453Z,5.73
2019-01-19T14:13:40.807Z,5.07
2019-01-19T14:16:37.840Z,5.47
2019-01-19T14:19:46.313Z,5.20
2019-01-19T14:22:42.158Z,5.90
2019-01-19T14:25:50.303Z,6.13
2019-01-19T14:29:07.991Z,7.00
2019-01-19T14:32:30.093Z,6.90
2019-01-19T14:35:46.001Z,7.50
2019-01-19T14:38:56.899Z,8.63
2019-01-19T14:42:14.600Z,8.37
2019-01-19T14:45:14.969Z,8.57
2019-01-19T14:48:25.442Z,9.10
2019-01-19T14:51:22.081Z,8.47
2019-01-19T14:54:32.914Z,9.30
2019-01-19T14:57:24.524Z,9.70
2019-01-19T15:00:35.734Z,9.70
2019-01-19T15:03:39.116Z,9.77
2019-01-19T15:06:54.008Z,10.00
2019-01-19T15:09:43.446Z,8.80
2019-01-19T15:12:31.487Z,9.30
2019-01-19T15:15:12.105Z,10.93
2019-01-19T15:18:34.747Z,9.77
2019-01-19T15:21:14.430Z,10.20
2019-01-19T15:24:36.310Z,11.00
2019-01-19T15:27:38.245Z,10.07
2019-01-19T15:31:01.615Z,9.90
2019-01-19T15:34:26.056Z,10.00
2019-01-19T15:37:36.210Z,10.57
2019-01-19T15:40:37.130Z,10.53
2019-01-19T15:43:47.459Z,11.50
2019-01-19T15:47:13.211Z,10.97
2019-01-19T15:50:11.478Z,11.40
2019-01-19T15:53:22.391Z,11.00
2019-01-19T15:56:45.320Z,11.50
2019-01-19T15:59:53.798Z,10.93
2019-01-19T16:02:58.684Z,10.03
2019-01-19T16:06:28.093Z,11.53
2019-01-19T16:09:45.123Z,10.73
2019-01-19T16:12:59.243Z,12.87
2019-01-19T16:16:19.069Z,13.70
2019-01-19T16:19:25.172Z,15.13
2019-01-19T16:22:31.668Z,14.43
2019-01-19T16:25:40.627Z,15.07
2019-01-19T16:28:53.235Z,15.87
2019-01-19T16:32:09.466Z,14.33
2019-01-19T16:35:15.681Z,13.73
2019-01-19T16:38:13.706Z,13.37
2019-01-19T16:41:29.660Z,14.23
2019-01-19T16:44:55.211Z,13.03
2019-01-19T16:47:56.852Z,13.90
2019-01-19T16:51:11.687Z,13.43
2019-01-19T16:54:04.629Z,13.27
2019-01-19T16:57:05.144Z,12.93
2019-01-19T17:00:05.283Z,12.60
2019-01-19T17:03:26.002Z,12.27
2019-01-19T17:06:26.093Z,13.30
2019-01-19T17:09:13.391Z,14.57
2019-01-19T17:12:12.133Z,12.87
2019-01-19T17:15:20.346Z,12.90
2019-01-19T17:18:15.548Z,12.20
2019-01-19T17:21:30.235Z,13.27
2019-01-19T17:24:19.875Z,13.90
2019-01-19T17:27:15.193Z,14.63
2019-01-19T17:30:25.732Z,13.00
2019-01-19T17:33:31.355Z,12.83
2019-01-19T17:36:37.596Z,12.63
2019-01-19T17:39:53.734Z,12.93
2019-01-19T17:42:45.126Z,13.20
2019-01-19T17:45:45.502Z,13.17
2019-01-19T17:48:47.294Z,12.93
2019-01-19T17:51:42.715Z,13.20
2019-01-19T17:54:37.417Z,13.23
2019-01-19T17:57:19.229Z,13.23
2019-01-19T18:00:34.044Z,12.27
2019-01-19T18:03:40.957Z,13.50
2019-01-19T18:06:52.539Z,14.60
2019-01-19T18:09:58.405Z,15.47
2019-01-19T18:12:54.853Z,14.03
2019-01-19T18:15:58.050Z,15.60
2019-01-19T18:19:09.758Z,18.17
2019-01-19T18:22:27.129Z,18.50
2019-01-19T18:25:23.782Z,21.47
2019-01-19T18:28:43.300Z,24.03
2019-01-19T18:32:00.173Z,58.60
2019-01-19T18:35:14.357Z,67.27
2019-01-19T18:38:38.325Z,54.27
2019-01-19T18:41:55.715Z,39.90
2019-01-19T18:45:06.608Z,40.87
2019-01-19T18:48:16.215Z,43.07
2019-01-19T18:51:14.763Z,31.27
2019-01-19T18:54:18.621Z,32.77
2019-01-19T18:57:50.782Z,35.13
2019-01-19T19:01:08.834Z,30.13
2019-01-19T19:04:26.341Z,28.90
2019-01-19T19:07:46.269Z,21.30
2019-01-19T19:10:45.796Z,26.00
2019-01-19T19:13:50.374Z,22.20
2019-01-19T19:17:19.650Z,20.47
2019-01-19T19:20:21.837Z,17.60
2019-01-19T19:23:15.225Z,16.03
2019-01-19T19:26:31.193Z,16.27
2019-01-19T19:29:43.983Z,15.63
2019-01-19T19:32:55.067Z,13.87
2019-01-19T19:36:03.315Z,15.73
2019-01-19T19:39:06.293Z,16.97
2019-01-19T19:41:58.039Z,20.17
2019-01-19T19:44:58.480Z,26.80
2019-01-19T19:48:19.370Z,21.20
2019-01-19T19:52:03.415Z,17.07
2019-01-19T19:54:34.518Z,14.13
2019-01-19T19:57:04.889Z,13.43
2019-01-19T19:59:35.718Z,15.63
2019-01-19T20:02:07.601Z,16.60
2019-01-19T20:04:37.826Z,20.03
2019-01-19T20:07:08.049Z,22.03
2019-01-19T20:09:39.158Z,22.97
2019-01-19T20:12:09.599Z,19.73
2019-01-19T20:14:40.111Z,19.40
2019-01-19T20:17:10.263Z,18.20
2019-01-19T20:19:40.502Z,18.20
2019-01-19T20:22:10.796Z,30.90
2019-01-19T20:24:41.822Z,21.03
2019-01-19T20:27:12.249Z,14.73
2019-01-19T20:29:43.158Z,15.80
2019-01-19T20:32:13.305Z,14.37
2019-01-19T20:34:44.527Z,15.27
2019-01-19T20:37:14.708Z,16.63
2019-01-19T20:39:45.463Z,15.23
2019-01-19T20:42:18.039Z,14.20
2019-01-19T20:44:48.864Z,14.27
2019-01-19T20:47:19.981Z,12.97
2019-01-19T20:49:50.132Z,14.60
2019-01-19T20:52:21.807Z,13.37
2019-01-19T20:54:51.964Z,13.20
2019-01-19T20:57:22.143Z,13.53
2019-01-19T20:59:53.554Z,13.13
2019-01-19T21:02:23.734Z,13.77
2019-01-19T21:04:53.926Z,14.37
2019-01-19T21:07:23.963Z,15.73
2019-01-19T21:09:54.078Z,14.83
2019-01-19T21:12:24.228Z,16.37
2019-01-19T21:14:54.259Z,19.83
2019-01-19T21:17:24.394Z,20.50
2019-01-19T21:19:54.667Z,30.83
2019-01-19T21:22:24.746Z,24.77
2019-01-19T21:24:56.464Z,19.77
2019-01-19T21:27:26.587Z,18.00
2019-01-19T21:29:56.804Z,21.33
2019-01-19T21:32:26.905Z,21.53
2019-01-19T21:34:56.976Z,16.90
2019-01-19T21:37:27.117Z,19.10
2019-01-19T21:39:57.226Z,21.93
2019-01-19T21:42:27.330Z,20.90
2019-01-19T21:45:00.553Z,22.23
2019-01-19T21:47:30.674Z,22.80
2019-01-19T21:50:00.780Z,24.47
2019-01-19T21:52:31.055Z,28.87
2019-01-19T21:55:01.181Z,29.00
2019-01-19T21:57:31.248Z,30.27
2019-01-19T22:00:01.453Z,33.27
2019-01-19T22:02:31.602Z,29.90
2019-01-19T22:05:01.804Z,22.00
2019-01-19T22:07:32.024Z,22.20
2019-01-19T22:10:02.888Z,16.83
2019-01-19T22:12:33.498Z,19.67
2019-01-19T22:15:04.032Z,19.37
2019-01-19T22:17:39.514Z,20.67
2019-01-19T22:20:07.651Z,27.20
2019-01-19T22:22:37.842Z,24.37
2019-01-19T22:25:08.511Z,24.23
2019-01-19T22:27:41.157Z,23.23
2019-01-19T22:30:13.561Z,21.13
2019-01-19T22:32:48.600Z,24.37
2019-01-19T22:35:18.939Z,24.80
2019-01-19T22:37:49.770Z,26.63
2019-01-19T22:40:19.850Z,26.27
2019-01-19T22:42:54.376Z,25.07
2019-01-19T22:45:24.538Z,24.33
2019-01-19T22:47:54.781Z,25.23
2019-01-19T22:50:24.824Z,23.50
2019-01-19T22:52:54.998Z,22.97
2019-01-19T22:55:25.517Z,19.03
2019-01-19T22:58:04.246Z,17.30
2019-01-19T23:01:14.683Z,16.63
2019-01-19T23:03:46.271Z,16.90
2019-01-19T23:06:17.306Z,18.33
2019-01-19T23:08:49.853Z,16.67
2019-01-19T23:11:21.683Z,17.50
2019-01-19T23:13:53.091Z,16.50
2019-01-19T23:16:24.021Z,17.13
2019-01-19T23:18:56.180Z,18.43
2019-01-19T23:21:27.214Z,16.10
2019-01-19T23:23:58.260Z,18.93
2019-01-19T23:26:30.333Z,16.80
2019-01-19T23:29:01.066Z,18.60
2019-01-19T23:31:32.387Z,16.53
2019-01-19T23:34:03.663Z,16.30
2019-01-19T23:36:34.410Z,17.37
2019-01-19T23:39:13.944Z,15.60
2019-01-19T23:41:45.336Z,17.03
2019-01-19T23:44:16.990Z,17.00
2019-01-19T23:46:48.120Z,18.57
2019-01-19T23:49:18.252Z,17.67
2019-01-19T23:51:48.305Z,17.00
2019-01-19T23:54:18.417Z,18.20
2019-01-19T23:56:48.544Z,17.27
2019-01-19T23:59:18.679Z,16.57
